Flight Track Log - Related Links

Times and Time Zones

All times are in EDT time to prevent confusion due to time zone crossing. See the 9Y-BGI flight status page for this flight to view local times or setup timezone preferences in your user account.

Time Position Orientation Groundspeed Altitude Reporting Facility
EDT Latitude Longitude Course Direction KTS MPH feet Rate Location/Type
Fri 06:23:00 PM 16.1774 -61.2400 151° Southeast  Level Estimated
Fri 06:24:00 PM 16.0707 -61.1790 151° Southeast  Level Estimated
Fri 06:25:00 PM 15.9640 -61.1180 151° Southeast  Level Estimated
Fri 06:26:00 PM 15.8573 -61.0570 151° Southeast  Level Estimated
Fri 06:27:00 PM 15.7506 -60.9962 151° Southeast  Level Estimated
Fri 06:28:00 PM 15.6438 -60.9353 151° Southeast  Level Estimated
Fri 06:29:00 PM 15.5371 -60.8746 151° Southeast  Level Estimated
Fri 06:30:00 PM 15.4303 -60.8139 151° Southeast  Level Estimated
Fri 06:31:00 PM 15.3235 -60.7533 151° Southeast  Level Estimated
Fri 06:32:00 PM 15.2167 -60.6927 151° Southeast  Level Estimated
Fri 06:33:00 PM 15.1098 -60.6322 151° Southeast  Level Estimated
Fri 06:34:00 PM 15.0030 -60.5718 151° Southeast  Level Estimated
Fri 06:35:00 PM 14.8961 -60.5114 151° Southeast  Level Estimated
Fri 06:36:00 PM 14.7892 -60.4511 151° Southeast  Level Estimated
Fri 06:37:00 PM 14.6823 -60.3909 151° Southeast  Level Estimated
Fri 06:38:00 PM 14.5754 -60.3307 151° Southeast  Level Estimated
Fri 06:39:00 PM 14.4685 -60.2705 151° Southeast  Level Estimated
Fri 06:40:00 PM 14.3615 -60.2104 151° Southeast  Level Estimated
Fri 06:41:00 PM 14.2546 -60.1504 151° Southeast  Level Estimated
Fri 06:42:00 PM 14.1476 -60.0905 151° Southeast  Level Estimated
Fri 06:43:00 PM 14.0406 -60.0305 151° Southeast  Level Estimated
Fri 06:44:00 PM 13.9336 -59.9707 152° Southeast  Level Estimated
Fri 06:45:00 PM 13.8266 -59.9109 152° Southeast  Level Estimated
Fri 06:46:00 PM 13.7196 -59.8512 152° Southeast  Level Estimated
Fri 06:47:00 PM 13.6125 -59.7915 152° Southeast  Level Estimated
Fri 06:48:00 PM 13.5055 -59.7318 152° Southeast  Level Estimated
Fri 06:49:00 PM 13.3984 -59.6723 152° Southeast  Level Estimated
Fri 06:50:00 PM 13.2913 -59.6127 152° Southeast  Level Estimated
Fri 06:51:00 PM 13.1842 -59.5532 152° Southeast  Level Estimated
Fri 06:52:00 PM 13.0771 -59.4938 152° Southeast  Level Estimated
Fri 06:53:00 PM 13.0746 -59.4925 152° Southeast  Level Estimated
Fri 06:54:00 PM 13.0746 -59.4925 52° Northeast  Level Estimated
Fri 06:55:00 PM 13.0746 -59.4925 52° Northeast  Level Estimated
Fri 06:56:00 PM 13.0746 -59.4925 52° Northeast  Level Estimated
Fri 06:57:00 PM 13.0746 -59.4925 52° Northeast  Level Estimated
Fri 06:58:00 PM 13.0746 -59.4925 52° Northeast  Level Estimated
Fri 06:59:00 PM 13.0746 -59.4925 52° Northeast  Level Estimated
Fri 07:00:00 PM 13.0746 -59.4925 52° Northeast  Level Estimated
Fri 07:01:00 PM 13.0746 -59.4925 52° Northeast  Level Estimated
Fri 07:02:00 PM 13.0746 -59.4925 52° Northeast  Level Estimated
Fri 07:03:00 PM 13.0746 -59.4925 52° Northeast  Level Estimated
Fri 07:04:00 PM 13.0746 -59.4925 52° Northeast  Level Estimated
Fri 07:05:00 PM 13.0746 -59.4925 52° Northeast  Level Estimated
Fri 07:06:00 PM 13.0746 -59.4925 52° Northeast  Level Estimated
Fri 07:07:00 PM 13.0746 -59.4925 52° Northeast  Level Estimated
Fri 07:08:00 PM 13.0746 -59.4925 52° Northeast  Level Estimated

Login

Don't have an account? Register now (free) for customized features, flight alerts, and more!